Time;durP1;ratioP1;P1;durP2;ratioP2;P2;SDS_P1;SDS_P2;PMS_P1;PMS_P2;Temp;Humidity;BMP_temperature;BMP_pressure;BME280_temperature;BME280_humidity;BME280_pressure;Samples;Min_cycle;Max_cycle;Signal;HPM_P1;HPM_P2
2022/11/19 00:08:02;;;;;;;15.90;6.00;;;5.80;99.90;;;;;;21162332;28;20296;-80
2022/11/19 00:18:04;;;;;;;19.65;8.02;;;5.80;99.90;;;;;;21186353;28;20510;-80
2022/11/19 00:28:05;;;;;;;23.40;8.57;;;5.70;99.90;;;;;;21183346;28;20031;-79
2022/11/19 00:38:06;;;;;;;;;;;5.60;99.90;;;;;;21183774;28;20510;-80
2022/11/19 00:48:07;;;;;;;17.23;8.10;;;5.70;99.90;;;;;;21181624;28;19973;-80
2022/11/19 00:58:07;;;;;;;;;;;5.80;99.90;;;;;;21181937;28;20032;-79
2022/11/19 01:08:08;;;;;;;23.03;8.83;;;5.90;99.90;;;;;;21164124;28;19958;-79
2022/11/19 01:18:09;;;;;;;13.73;6.90;;;5.90;99.90;;;;;;21175943;28;20035;-79
2022/11/19 01:28:10;;;;;;;19.55;7.40;;;6.00;99.90;;;;;;21179842;28;20682;-80
2022/11/19 01:38:10;;;;;;;9.53;5.93;;;5.90;99.90;;;;;;21171336;28;20023;-80
2022/11/19 01:48:28;;;;;;;13.47;7.00;;;6.00;99.90;;;;;;21172817;28;20286;-79
2022/11/19 01:58:39;;;;;;;16.13;7.15;;;6.00;99.90;;;;;;21175381;28;20114;-80
2022/11/19 02:08:45;;;;;;;14.13;6.67;;;5.90;99.90;;;;;;21187629;28;20032;-79
2022/11/19 02:19:15;;;;;;;18.55;8.18;;;5.70;99.90;;;;;;21193932;28;20277;-80
2022/11/19 02:29:25;;;;;;;21.25;7.38;;;5.80;99.90;;;;;;21132548;28;20048;-80
2022/11/19 02:39:45;;;;;;;20.17;8.65;;;5.80;99.90;;;;;;21133107;27;20032;-80
2022/11/19 02:49:47;;;;;;;21.27;8.23;;;5.90;99.90;;;;;;21097540;28;20474;-78
2022/11/19 03:10:24;;;;;;;16.95;7.13;;;6.00;99.90;;;;;;21101297;28;20039;-80
2022/11/19 03:20:50;;;;;;;21.55;7.75;;;5.90;99.90;;;;;;21079366;28;20126;-80
2022/11/19 03:30:54;;;;;;;17.52;7.18;;;5.90;99.90;;;;;;21095334;28;20088;-80
2022/11/19 03:40:56;;;;;;;12.57;6.75;;;6.00;99.90;;;;;;21143883;28;20027;-80
2022/11/19 03:51:05;;;;;;;13.40;6.85;;;6.00;99.90;;;;;;21184412;28;20032;-80
2022/11/19 04:01:07;;;;;;;16.92;7.00;;;5.90;99.90;;;;;;21180382;28;20031;-80
2022/11/19 04:11:08;;;;;;;15.98;6.90;;;5.90;99.90;;;;;;21181024;28;20118;-80
2022/11/19 04:21:09;;;;;;;17.80;8.13;;;6.00;99.90;;;;;;21179838;28;20046;-80
2022/11/19 04:31:10;;;;;;;9.93;5.37;;;6.00;99.90;;;;;;21175480;28;20035;-80
2022/11/19 04:41:11;;;;;;;17.57;6.13;;;5.90;99.90;;;;;;21173674;28;20036;-80
2022/11/19 04:51:11;;;;;;;13.45;6.78;;;5.90;99.90;;;;;;21159658;28;20031;-79
2022/11/19 05:01:12;;;;;;;8.93;5.30;;;5.80;99.90;;;;;;21169413;28;20402;-80
2022/11/19 05:11:13;;;;;;;18.50;9.00;;;5.60;99.90;;;;;;21171254;28;20032;-80
2022/11/19 05:21:14;;;;;;;17.70;5.00;;;5.60;99.90;;;;;;21171092;28;20046;-80
2022/11/19 05:31:14;;;;;;;10.00;4.65;;;5.70;99.90;;;;;;21181660;28;20043;-79
2022/11/19 05:41:15;;;;;;;11.17;4.83;;;5.70;99.90;;;;;;21174097;28;20046;-79
2022/11/19 05:51:16;;;;;;;11.73;4.40;;;5.70;99.90;;;;;;21188544;28;20055;-79
2022/11/19 06:01:27;;;;;;;5.70;2.45;;;5.80;99.90;;;;;;21188585;28;20039;-80
2022/11/19 06:21:48;;;;;;;12.38;4.57;;;5.50;99.90;;;;;;21160469;28;20032;-79
2022/11/19 06:31:49;;;;;;;23.67;6.40;;;5.50;99.90;;;;;;21146506;28;20034;-80
2022/11/19 06:41:49;;;;;;;18.23;6.60;;;5.60;99.90;;;;;;21181688;28;20027;-80
2022/11/19 06:51:50;;;;;;;13.27;6.32;;;5.60;99.90;;;;;;21184757;28;20278;-79
2022/11/19 07:01:51;;;;;;;333.40;53.67;;;5.60;99.90;;;;;;21106268;28;20058;-81
2022/11/19 07:11:52;;;;;;;35.60;8.17;;;5.60;99.90;;;;;;21177618;28;20076;-81
2022/11/19 07:21:52;;;;;;;14.37;5.80;;;5.50;99.90;;;;;;21128172;28;20059;-81
2022/11/19 07:31:53;;;;;;;;;;;5.50;99.90;;;;;;21099949;28;20028;-82
2022/11/19 07:52:14;;;;;;;8.35;4.63;;;5.40;99.90;;;;;;21093587;28;20448;-81
2022/11/19 08:02:15;;;;;;;16.52;7.88;;;5.80;99.90;;;;;;21092970;28;20111;-84
2022/11/19 08:12:16;;;;;;;18.20;7.80;;;6.10;99.90;;;;;;21079448;28;20035;-82
2022/11/19 08:22:17;;;;;;;;;;;6.00;99.90;;;;;;21113977;28;20493;-81
2022/11/19 08:32:17;;;;;;;20.47;7.27;;;6.00;99.90;;;;;;21176011;28;19907;-81
2022/11/19 08:52:37;;;;;;;13.88;7.18;;;6.30;99.90;;;;;;21175893;28;20050;-81
2022/11/19 09:02:38;;;;;;;14.00;6.10;;;6.50;99.90;;;;;;21175437;28;20035;-82
2022/11/19 09:12:39;;;;;;;6.13;3.73;;;6.80;99.90;;;;;;21185343;28;20273;-82
2022/11/19 09:22:40;;;;;;;6.60;3.00;;;7.00;99.90;;;;;;21184983;28;20016;-81
2022/11/19 09:32:40;;;;;;;3.47;2.00;;;7.10;99.90;;;;;;21150542;28;20663;-81
2022/11/19 09:43:03;;;;;;;4.67;2.60;;;7.70;99.90;;;;;;21168170;28;20114;-81
2022/11/19 09:53:17;;;;;;;9.38;3.13;;;8.10;99.90;;;;;;21148219;28;20165;-81
2022/11/19 10:03:23;;;;;;;7.10;3.50;;;8.00;99.90;;;;;;21156282;28;20065;-81
2022/11/19 10:13:33;;;;;;;5.10;2.03;;;8.60;99.90;;;;;;21103645;28;20074;-81
2022/11/19 10:23:47;;;;;;;5.50;2.25;;;9.50;99.90;;;;;;21103910;28;20028;-80
2022/11/19 10:33:53;;;;;;;5.43;3.13;;;10.50;99.90;;;;;;21106630;28;20043;-81
2022/11/19 10:44:06;;;;;;;3.03;1.15;;;10.10;99.90;;;;;;21104553;28;20039;-82
2022/11/19 10:54:26;;;;;;;5.93;1.48;;;9.40;99.90;;;;;;21101693;28;20024;-80
2022/11/19 11:04:29;;;;;;;9.52;1.10;;;9.50;99.90;;;;;;21104266;28;20036;-81
2022/11/19 11:24:50;;;;;;;55.78;16.52;;;11.60;99.90;;;;;;21103963;28;20539;-83
2022/11/19 11:34:51;;;;;;;26.03;5.53;;;14.20;99.90;;;;;;21089222;28;20053;-82
2022/11/19 11:44:58;;;;;;;6.27;1.00;;;12.30;99.90;;;;;;21126308;28;20382;-83
2022/11/19 11:55:03;;;;;;;6.88;1.00;;;9.80;99.90;;;;;;21116262;28;20116;-82
2022/11/19 12:05:09;;;;;;;3.70;1.33;;;9.00;99.90;;;;;;21135610;28;20043;-81
2022/11/19 12:15:19;;;;;;;3.90;1.50;;;9.00;99.90;;;;;;21145933;28;20032;-80
2022/11/19 12:25:26;;;;;;;11.73;2.55;;;9.10;99.90;;;;;;21091259;28;20067;-81
2022/11/19 12:35:29;;;;;;;5.15;1.20;;;9.20;99.90;;;;;;21086134;28;20027;-79
2022/11/19 12:45:53;;;;;;;6.13;1.38;;;9.50;99.90;;;;;;21078282;28;20055;-79
2022/11/19 12:56:34;;;;;;;7.53;1.50;;;9.50;99.90;;;;;;21114997;28;20024;-79
2022/11/19 13:06:47;;;;;;;3.55;1.60;;;9.90;99.90;;;;;;21118662;28;20044;-78
2022/11/19 13:16:49;;;;;;;4.28;1.48;;;9.50;99.90;;;;;;21106485;28;20703;-81
2022/11/19 13:26:50;;;;;;;22.88;7.18;;;9.20;99.90;;;;;;21105926;28;20529;-81
2022/11/19 13:37:11;;;;;;;38.53;18.85;;;9.00;99.90;;;;;;21101128;28;20040;-81
2022/11/19 13:47:26;;;;;;;3.25;1.63;;;9.40;99.90;;;;;;21107716;28;20032;-81
2022/11/19 13:57:31;;;;;;;10.07;1.52;;;9.50;99.90;;;;;;21124241;28;20028;-83
2022/11/19 14:07:53;;;;;;;5.18;2.17;;;9.60;99.90;;;;;;21091759;28;20524;-80
2022/11/19 14:28:45;;;;;;;3.30;1.33;;;9.90;99.90;;;;;;21114557;28;20030;-81
2022/11/19 14:38:55;;;;;;;4.75;1.35;;;9.50;99.90;;;;;;21125298;28;20441;-81
2022/11/19 14:49:04;;;;;;;6.60;1.50;;;9.10;99.90;;;;;;21085836;28;20035;-82
2022/11/19 14:59:18;;;;;;;3.80;1.35;;;9.60;99.90;;;;;;21140430;28;20164;-80
2022/11/19 15:09:51;;;;;;;7.03;1.65;;;9.90;99.90;;;;;;21168158;28;20036;-81
2022/11/19 15:20:30;;;;;;;5.30;1.73;;;9.10;99.90;;;;;;21169047;28;20494;-80
2022/11/19 15:30:50;;;;;;;2.75;1.33;;;8.70;99.90;;;;;;21166075;28;20035;-82
2022/11/19 15:40:55;;;;;;;5.95;2.13;;;8.50;99.90;;;;;;21168219;28;20077;-80
2022/11/19 15:50:57;;;;;;;3.22;1.48;;;8.00;99.90;;;;;;21166645;28;20031;-81
2022/11/19 16:00:58;;;;;;;6.97;2.13;;;7.50;99.90;;;;;;21160747;28;20106;-81
2022/11/19 16:21:38;;;;;;;8.38;3.80;;;7.80;99.90;;;;;;21143986;28;20055;-81
2022/11/19 16:31:39;;;;;;;5.63;2.78;;;7.40;99.90;;;;;;21164962;28;20529;-79
2022/11/19 16:52:01;;;;;;;42.03;14.27;;;7.60;99.90;;;;;;21163139;28;20039;-79
2022/11/19 17:02:02;;;;;;;22.10;9.63;;;7.40;99.90;;;;;;21144514;28;20140;-79
2022/11/19 17:12:21;;;;;;;2.80;1.75;;;7.40;99.90;;;;;;21161829;28;20032;-80
2022/11/19 17:22:26;;;;;;;2.63;1.60;;;7.40;99.90;;;;;;21097693;28;20506;-81
2022/11/19 17:32:56;;;;;;;2.42;1.40;;;7.30;99.90;;;;;;21112678;28;20165;-82
2022/11/19 17:53:19;;;;;;;2.53;1.35;;;6.70;99.90;;;;;;21203755;27;20032;-82
2022/11/19 18:03:20;;;;;;;2.08;1.40;;;6.70;99.90;;;;;;21193776;28;20032;-82
2022/11/19 18:13:24;;;;;;;3.95;1.60;;;6.60;99.90;;;;;;21214664;27;20043;-82
2022/11/19 18:23:25;;;;;;;3.17;1.38;;;6.50;99.90;;;;;;21208976;27;20039;-81
2022/11/19 18:33:26;;;;;;;7.40;3.07;;;6.40;99.90;;;;;;21207926;27;20409;-84
2022/11/19 18:53:46;;;;;;;4.95;2.10;;;6.20;99.90;;;;;;21171226;28;20270;-83
2022/11/19 19:03:49;;;;;;;;;;;6.20;99.90;;;;;;21105187;28;20028;-83
2022/11/19 19:13:51;;;;;;;3.95;2.60;;;6.20;99.90;;;;;;21116488;28;20255;-81
2022/11/19 19:23:52;;;;;;;3.55;2.47;;;6.10;99.90;;;;;;21182551;28;20028;-82
2022/11/19 19:33:53;;;;;;;7.13;4.17;;;6.10;99.90;;;;;;21186611;28;20027;-80
2022/11/19 19:43:56;;;;;;;8.27;4.13;;;6.10;99.90;;;;;;21180963;28;20107;-81
2022/11/19 19:53:57;;;;;;;7.35;2.97;;;6.00;99.90;;;;;;21163921;28;20281;-81
2022/11/19 20:04:09;;;;;;;11.18;4.97;;;6.00;99.90;;;;;;21184851;28;20024;-80
2022/11/19 20:14:10;;;;;;;17.52;9.48;;;6.00;99.90;;;;;;21177373;27;20027;-81
2022/11/19 20:24:11;;;;;;;9.90;5.35;;;5.90;99.90;;;;;;21189976;27;20054;-81
2022/11/19 20:34:13;;;;;;;7.80;4.57;;;5.90;99.90;;;;;;21178569;28;20092;-81
2022/11/19 20:44:24;;;;;;;8.52;4.43;;;5.80;99.90;;;;;;21179295;28;20050;-79
2022/11/19 20:54:25;;;;;;;8.88;4.97;;;5.90;99.90;;;;;;21177281;28;20032;-80
2022/11/19 21:04:35;;;;;;;13.85;5.38;;;5.90;99.90;;;;;;21166161;28;20125;-81
2022/11/19 21:14:36;;;;;;;10.98;5.32;;;5.90;99.90;;;;;;21176690;28;20080;-81
2022/11/19 21:24:36;;;;;;;;;;;5.90;99.90;;;;;;21174108;28;20062;-81
2022/11/19 21:34:40;;;;;;;11.50;5.67;;;5.90;99.90;;;;;;21212848;28;19915;-81
2022/11/19 21:44:41;;;;;;;9.38;5.88;;;5.90;99.90;;;;;;21204449;27;20036;-80
2022/11/19 21:54:41;;;;;;;;;;;5.80;99.90;;;;;;21224684;28;20092;-81
2022/11/19 22:04:42;;;;;;;15.53;6.03;;;5.70;99.90;;;;;;21212051;28;19933;-81
2022/11/19 22:14:43;;;;;;;;;;;5.60;99.90;;;;;;21258577;27;20283;-80
2022/11/19 22:24:44;;;;;;;25.00;7.30;;;5.50;99.90;;;;;;21223945;27;19916;-80
2022/11/19 22:34:44;;;;;;;;;;;5.50;99.90;;;;;;21234591;27;20636;-81
2022/11/19 22:44:45;;;;;;;16.60;7.33;;;5.40;99.90;;;;;;21238088;27;19912;-82
2022/11/19 22:54:46;;;;;;;15.27;7.38;;;5.40;99.90;;;;;;21238201;27;20059;-82
2022/11/19 23:04:47;;;;;;;14.90;6.97;;;5.40;99.90;;;;;;21204538;27;20023;-81
2022/11/19 23:14:47;;;;;;;12.55;7.20;;;5.50;99.90;;;;;;21230499;27;20378;-81
2022/11/19 23:24:48;;;;;;;13.52;6.47;;;5.40;99.90;;;;;;21204526;27;20131;-82
2022/11/19 23:34:49;;;;;;;13.20;6.18;;;5.50;99.90;;;;;;21218668;27;20031;-82
2022/11/19 23:44:50;;;;;;;;;;;5.50;99.90;;;;;;21184717;27;20076;-81
2022/11/19 23:54:51;;;;;;;13.43;6.10;;;5.40;99.90;;;;;;21146174;28;19908;-81
